KLYH

Lynchburg Regional / Preston Glenn Field Airport

Lynchburg, Virginia, USA
METAR KLYH 151854Z 21011KT 10SM OVC060 16/04 A2974 RMK AO2 SLP066 T01610039
Observed Flight Rules
Feb-15 @ 18:54 UTC (40 minutes ago) Visual Flight Rules
Wind Visibility Clouds
210° at 11 knots 10 miles
  • Overcast at 6,000' AGL
Temperatures Readings
Current 16°C / 61°F
Dewpoint 4°C / 39°F
Humidity 45%
Altimeter 29.74" Hg
Pressure 1006.6 hPa
Elevation 295
METAR KLYH 151854Z 21011KT 10SM OVC060 16/04 A2974 RMK AO2 SLP066 T01610039
Observed Flight Rules
Feb-15 @ 18:54 UTC
(40 minutes ago)
VFR
Wind Visibility
210° at 11 knots 10 miles
Clouds
  • Overcast at 6,000' AGL
Temperature Dewpoint
16°C / 61°F 4°C / 39°F
Humidity Altimeter Pressure
45% 29.74" Hg 1006.6 hPa